Terminal Aerodrome Forecast
Issued by NWS

Home | Current Version | Previous Version | Text Only | Print | Product List | Glossary On
Versions: 1 2 3 4 5 6 7 8 9 10 11 12 13 14 15 16 17 18 19 20
000
FTUS43 KAPX 280522
TAFMBL
TAF
KMBL 280522Z 2806/2906 VRB03KT 4SM BR OVC005
     FM280800 26004KT 3SM BR OVC005
     FM281400 31005KT P6SM BKN022
     FM281700 32005KT P6SM BKN040
     FM282000 32005KT P6SM FEW250
     FM290300 00000KT P6SM FEW250=

USA.gov is the U.S. government's official web portal to all federal, state and local government web resources and services.